Climatologie mensuelle pour septembre 2005

Valeurs journalières de 0h à 0h
Jour Température Vent Pluie Humidité Pression Ensoleillement (% max) DJUC DJUF
min moy max Vent moyen (rafale max) Secteur
  1   16.4 °C 21.3 °C 26.3 °C 1 km/h (6.3 km/h) SSE 0 mm 68 % 1018.9 hPa 0:00 h   (0%) 0 3.3
  2   16.6 °C 21.5 °C 27.1 °C 1.1 km/h (5.8 km/h) SSE 0 mm 70 % 1023.1 hPa 0:00 h   (0%) 0 3.5
  3   17.8 °C 21.5 °C 25.9 °C 1.1 km/h (8.2 km/h) SSE 0 mm 73 % 1025.1 hPa 0:00 h   (0%) 0 3.5
  4   17.4 °C 21.3 °C 25.6 °C 1.2 km/h (6.1 km/h) SSE 0 mm 72 % 1022.9 hPa 0:00 h   (0%) 0 3.3
  5   16.9 °C 21.3 °C 26.4 °C 2.7 km/h (24.3 km/h) SSE 0 mm 66 % 1018.2 hPa 0:00 h   (0%) 0 3.3
  6   17.4 °C 20.6 °C 25.1 °C 1 km/h (6.2 km/h) S 0 mm 69 % 1013.8 hPa 0:00 h   (0%) 0 2.6
  7   15.6 °C 20.2 °C 25.2 °C 0.9 km/h (7 km/h) SSE 0 mm 69 % 1014.4 hPa 0:00 h   (0%) 0 2.2
  8   15.6 °C 20.5 °C 25.2 °C 0.6 km/h (4.4 km/h) SSE 0 mm 67 % 1017.2 hPa 0:00 h   (0%) 0 2.5
  9   16.8 °C 20.2 °C 24.1 °C 0.9 km/h (4.4 km/h) SE 1 mm 71 % 1014 hPa 0:00 h   (0%) 0 2.2
  10   15.8 °C 20.1 °C 24 °C 1.1 km/h (13.3 km/h) SSE 21.2 mm 70 % 1013.6 hPa 0:00 h   (0%) 0 2.1
  11   15.5 °C 17.2 °C 20.6 °C 1 km/h (8.6 km/h) SSE 3.6 mm 74 % 1013 hPa 0:00 h   (0%) 0.8 0
  12   14.4 °C 16.8 °C 19.8 °C 0.6 km/h (5.5 km/h) SE 0 mm 70 % 1017.1 hPa 0:00 h   (0%) 1.2 0
  13   14 °C 17.4 °C 21.9 °C 0.8 km/h (6.1 km/h) SE 0 mm 71 % 1023.2 hPa 0:00 h   (0%) 0.6 0
  14   14.1 °C 17.9 °C 22.4 °C 0.7 km/h (5.7 km/h) SSE 0 mm 70 % 1026.1 hPa 0:00 h   (0%) 0.1 0
  15   12.6 °C 17.6 °C 22.3 °C 0.5 km/h (3.4 km/h) SSE 0 mm 69 % 1022.6 hPa 0:00 h   (0%) 0.4 0
  16   12.8 °C 18 °C 23.8 °C 1.6 km/h (15.1 km/h) SSE 0.5 mm 67 % 1012.2 hPa 0:00 h   (0%) 0 0
  17   11.4 °C 12.9 °C 17.1 °C 12.7 km/h (40.7 km/h) SE 20.7 mm 70 % 1014.4 hPa 0:00 h   (0%) 5.1 0
  18   9.6 °C 11.2 °C 12.4 °C 12.3 km/h (40.5 km/h) SE 0 mm 69 % 1018.5 hPa 0:00 h   (0%) 6.8 0
  19   11.1 °C 12.2 °C 13.8 °C 2.5 km/h (9.1 km/h) NE 0 mm 68 % 1021.2 hPa 0:00 h   (0%) 5.8 0
  20   10.9 °C 13 °C 15.3 °C 2.7 km/h (12.1 km/h) ENE 0 mm 68 % 1023 hPa 0:00 h   (0%) 5 0
  21   7.4 °C 11.8 °C 16.9 °C 1.3 km/h (5.5 km/h) SSE 0 mm 69 % 1020.7 hPa 0:00 h   (0%) 6.2 0
  22   7.9 °C 12.6 °C 17.1 °C 0.7 km/h (5.3 km/h) SE 0 mm 72 % 1020.6 hPa 0:00 h   (0%) 5.4 0
  23   8.9 °C 13.7 °C 18.8 °C 0.7 km/h (4.2 km/h) SSE 0 mm 75 % 1019.8 hPa 0:00 h   (0%) 4.3 0
  24   10.2 °C 11.6 °C 14.3 °C 0.3 km/h (2.1 km/h) SE 0 mm 78 % 1020.4 hPa 0:00 h   (0%) 6.4 0
  25    °C  °C  °C km/h (0 km/h) mm %  hPa 0:00 h   (0%)
  26    °C  °C  °C km/h (0 km/h) mm %  hPa 0:00 h   (0%)
  27    °C  °C  °C km/h (0 km/h) mm %  hPa 0:00 h   (0%)
  28    °C  °C  °C km/h (0 km/h) mm %  hPa 0:00 h   (0%)
  29    °C  °C  °C km/h (0 km/h) mm %  hPa 0:00 h   (0%)
  30    °C  °C  °C km/h (0 km/h) mm %  hPa 0:00 h   (0%)
7.4 °C 17.2 °C 27.1 °C 2.1 km/h (40.7 km/h) 47.0 mm 70 % 1018.9 hPa 0:00 h 48.1 28.5